sensor_id;sensor_type;location;lat;lon;timestamp;pressure;altitude;pressure_sealevel;temperature;humidity
68508;BME280;55510;49.560;19.090;2023-03-15T15:53:17;96268.28;;;1.56;62.80
68508;BME280;55510;49.560;19.090;2023-03-15T15:56:18;96273.53;;;1.56;63.90
68508;BME280;55510;49.560;19.090;2023-03-15T15:59:19;96276.38;;;1.55;63.90
68508;BME280;55510;49.560;19.090;2023-03-15T16:02:20;96270.75;;;1.58;64.32
68508;BME280;55510;49.560;19.090;2023-03-15T16:05:24;96273.16;;;1.59;64.60
68508;BME280;55510;49.560;19.090;2023-03-15T16:08:25;96267.53;;;1.63;64.98
68508;BME280;55510;49.560;19.090;2023-03-15T16:11:26;96268.34;;;1.63;65.12
68508;BME280;55510;49.560;19.090;2023-03-15T16:14:27;96274.59;;;1.62;64.92
68508;BME280;55510;49.560;19.090;2023-03-15T16:17:28;96271.16;;;1.62;65.12
68508;BME280;55510;49.560;19.090;2023-03-15T16:20:29;96269.53;;;1.61;65.59
68508;BME280;55510;49.560;19.090;2023-03-15T16:23:29;96276.00;;;1.58;65.54
68508;BME280;55510;49.560;19.090;2023-03-15T16:26:30;96275.91;;;1.51;65.45
68508;BME280;55510;49.560;19.090;2023-03-15T16:29:34;96277.09;;;1.49;66.00
68508;BME280;55510;49.560;19.090;2023-03-15T16:32:35;96285.72;;;1.42;65.94
68508;BME280;55510;49.560;19.090;2023-03-15T16:35:36;96294.78;;;1.40;66.25
68508;BME280;55510;49.560;19.090;2023-03-15T16:38:37;96288.31;;;1.36;66.45
68508;BME280;55510;49.560;19.090;2023-03-15T16:41:38;96281.59;;;1.33;66.77
68508;BME280;55510;49.560;19.090;2023-03-15T16:44:39;96287.41;;;1.28;66.87
68508;BME280;55510;49.560;19.090;2023-03-15T16:47:40;96288.59;;;1.26;67.23
68508;BME280;55510;49.560;19.090;2023-03-15T16:50:42;96296.38;;;1.19;67.14
68508;BME280;55510;49.560;19.090;2023-03-15T16:53:43;96305.00;;;1.13;67.26
68508;BME280;55510;49.560;19.090;2023-03-15T16:56:44;96303.75;;;1.09;67.67
68508;BME280;55510;49.560;19.090;2023-03-15T16:59:45;96301.88;;;1.03;67.81
68508;BME280;55510;49.560;19.090;2023-03-15T17:02:50;96316.13;;;1.00;67.57
68508;BME280;55510;49.560;19.090;2023-03-15T17:05:55;96318.34;;;0.96;68.12
68508;BME280;55510;49.560;19.090;2023-03-15T17:09:00;96318.69;;;0.93;68.28
68508;BME280;55510;49.560;19.090;2023-03-15T17:12:03;96323.66;;;0.88;68.58
68508;BME280;55510;49.560;19.090;2023-03-15T17:15:04;96322.03;;;0.87;68.88
68508;BME280;55510;49.560;19.090;2023-03-15T17:18:13;96331.88;;;0.85;68.29
68508;BME280;55510;49.560;19.090;2023-03-15T17:21:17;96331.44;;;0.81;68.89
68508;BME280;55510;49.560;19.090;2023-03-15T17:24:19;96324.75;;;0.79;69.21
68508;BME280;55510;49.560;19.090;2023-03-15T17:27:36;96335.81;;;0.74;69.73
68508;BME280;55510;49.560;19.090;2023-03-15T17:30:37;96335.97;;;0.72;70.15
68508;BME280;55510;49.560;19.090;2023-03-15T17:33:38;96335.53;;;0.69;69.82
68508;BME280;55510;49.560;19.090;2023-03-15T17:36:39;96331.47;;;0.66;69.97
68508;BME280;55510;49.560;19.090;2023-03-15T17:39:41;96339.69;;;0.63;70.05
68508;BME280;55510;49.560;19.090;2023-03-15T17:42:42;96346.09;;;0.61;70.42
68508;BME280;55510;49.560;19.090;2023-03-15T17:45:43;96334.19;;;0.58;71.14
68508;BME280;55510;49.560;19.090;2023-03-15T17:48:44;96341.41;;;0.56;71.82
68508;BME280;55510;49.560;19.090;2023-03-15T17:51:45;96335.06;;;0.50;72.40
68508;BME280;55510;49.560;19.090;2023-03-15T17:54:45;96337.59;;;0.43;73.24
68508;BME280;55510;49.560;19.090;2023-03-15T17:57:46;96332.09;;;0.38;73.10
68508;BME280;55510;49.560;19.090;2023-03-15T18:00:51;96338.69;;;0.34;74.58
68508;BME280;55510;49.560;19.090;2023-03-15T18:03:54;96341.03;;;0.29;74.67
68508;BME280;55510;49.560;19.090;2023-03-15T18:06:56;96344.53;;;0.21;74.46
68508;BME280;55510;49.560;19.090;2023-03-15T18:09:57;96342.63;;;0.15;74.50
68508;BME280;55510;49.560;19.090;2023-03-15T18:12:59;96343.53;;;0.07;74.98
68508;BME280;55510;49.560;19.090;2023-03-15T18:16:00;96347.38;;;-0.04;75.60
68508;BME280;55510;49.560;19.090;2023-03-15T18:19:00;96349.88;;;-0.10;75.60
68508;BME280;55510;49.560;19.090;2023-03-15T18:22:01;96346.00;;;-0.15;75.62
68508;BME280;55510;49.560;19.090;2023-03-15T18:25:03;96350.97;;;-0.20;75.77
68508;BME280;55510;49.560;19.090;2023-03-15T18:28:04;96343.31;;;-0.21;76.09
68508;BME280;55510;49.560;19.090;2023-03-15T18:31:10;96352.28;;;-0.24;76.33
68508;BME280;55510;49.560;19.090;2023-03-15T18:34:12;96354.28;;;-0.26;76.61
68508;BME280;55510;49.560;19.090;2023-03-15T18:37:15;96360.84;;;-0.30;76.99
68508;BME280;55510;49.560;19.090;2023-03-15T18:40:17;96361.38;;;-0.35;76.68
68508;BME280;55510;49.560;19.090;2023-03-15T18:43:19;96358.66;;;-0.41;76.93
68508;BME280;55510;49.560;19.090;2023-03-15T18:46:22;96360.16;;;-0.47;77.53
68508;BME280;55510;49.560;19.090;2023-03-15T18:49:27;96361.00;;;-0.55;77.42
68508;BME280;55510;49.560;19.090;2023-03-15T18:52:28;96367.28;;;-0.64;76.99
68508;BME280;55510;49.560;19.090;2023-03-15T18:55:28;96364.72;;;-0.73;77.70
68508;BME280;55510;49.560;19.090;2023-03-15T18:58:29;96369.38;;;-0.83;77.99
68508;BME280;55510;49.560;19.090;2023-03-15T19:01:31;96377.41;;;-0.93;78.46
68508;BME280;55510;49.560;19.090;2023-03-15T19:04:32;96375.81;;;-1.02;78.70
68508;BME280;55510;49.560;19.090;2023-03-15T19:07:32;96372.41;;;-1.11;79.22
68508;BME280;55510;49.560;19.090;2023-03-15T19:10:33;96383.88;;;-1.20;79.85
68508;BME280;55510;49.560;19.090;2023-03-15T19:13:34;96385.22;;;-1.24;80.41
68508;BME280;55510;49.560;19.090;2023-03-15T19:16:35;96388.31;;;-1.29;80.07
68508;BME280;55510;49.560;19.090;2023-03-15T19:19:35;96390.63;;;-1.34;81.10
68508;BME280;55510;49.560;19.090;2023-03-15T19:22:37;96389.50;;;-1.40;81.27
68508;BME280;55510;49.560;19.090;2023-03-15T19:25:38;96390.81;;;-1.44;81.71
68508;BME280;55510;49.560;19.090;2023-03-15T19:28:39;96397.66;;;-1.43;82.37
68508;BME280;55510;49.560;19.090;2023-03-15T19:31:40;96398.63;;;-1.44;82.02
68508;BME280;55510;49.560;19.090;2023-03-15T19:34:41;96397.00;;;-1.45;83.30
68508;BME280;55510;49.560;19.090;2023-03-15T19:37:42;96391.78;;;-1.45;83.48
68508;BME280;55510;49.560;19.090;2023-03-15T19:40:43;96396.03;;;-1.44;83.12
68508;BME280;55510;49.560;19.090;2023-03-15T19:43:44;96399.63;;;-1.45;82.96
68508;BME280;55510;49.560;19.090;2023-03-15T19:46:45;96403.06;;;-1.44;83.47
68508;BME280;55510;49.560;19.090;2023-03-15T19:49:46;96410.88;;;-1.44;84.15
68508;BME280;55510;49.560;19.090;2023-03-15T19:52:47;96414.28;;;-1.44;83.15
68508;BME280;55510;49.560;19.090;2023-03-15T19:55:47;96421.66;;;-1.48;83.17
68508;BME280;55510;49.560;19.090;2023-03-15T19:58:48;96424.75;;;-1.52;83.63
68508;BME280;55510;49.560;19.090;2023-03-15T20:01:49;96416.44;;;-1.56;84.07
68508;BME280;55510;49.560;19.090;2023-03-15T20:04:50;96426.41;;;-1.59;84.50
68508;BME280;55510;49.560;19.090;2023-03-15T20:07:51;96431.13;;;-1.63;84.68
68508;BME280;55510;49.560;19.090;2023-03-15T20:11:00;96426.75;;;-1.63;85.13
68508;BME280;55510;49.560;19.090;2023-03-15T20:14:00;96436.19;;;-1.62;84.73
68508;BME280;55510;49.560;19.090;2023-03-15T20:17:02;96441.56;;;-1.63;85.79
68508;BME280;55510;49.560;19.090;2023-03-15T20:20:03;96446.47;;;-1.60;85.47
68508;BME280;55510;49.560;19.090;2023-03-15T20:23:10;96447.63;;;-1.63;85.97
68508;BME280;55510;49.560;19.090;2023-03-15T20:26:12;96447.94;;;-1.57;85.67
68508;BME280;55510;49.560;19.090;2023-03-15T20:29:13;96455.75;;;-1.57;85.97
68508;BME280;55510;49.560;19.090;2023-03-15T20:32:13;96454.59;;;-1.55;86.60
68508;BME280;55510;49.560;19.090;2023-03-15T20:35:14;96456.72;;;-1.50;87.05
68508;BME280;55510;49.560;19.090;2023-03-15T20:38:15;96461.63;;;-1.47;86.83
68508;BME280;55510;49.560;19.090;2023-03-15T20:41:16;96461.28;;;-1.44;87.00
68508;BME280;55510;49.560;19.090;2023-03-15T20:44:18;96461.13;;;-1.42;86.72
68508;BME280;55510;49.560;19.090;2023-03-15T20:47:21;96455.59;;;-1.39;87.08
68508;BME280;55510;49.560;19.090;2023-03-15T20:50:22;96458.34;;;-1.41;86.98
68508;BME280;55510;49.560;19.090;2023-03-15T20:53:23;96461.44;;;-1.37;87.01
68508;BME280;55510;49.560;19.090;2023-03-15T20:56:24;96464.22;;;-1.39;86.74
68508;BME280;55510;49.560;19.090;2023-03-15T20:59:25;96464.22;;;-1.39;86.58
68508;BME280;55510;49.560;19.090;2023-03-15T21:02:25;96459.81;;;-1.38;87.06
68508;BME280;55510;49.560;19.090;2023-03-15T21:05:26;96458.84;;;-1.37;86.91
68508;BME280;55510;49.560;19.090;2023-03-15T21:08:28;96462.25;;;-1.37;87.04
68508;BME280;55510;49.560;19.090;2023-03-15T21:11:29;96467.13;;;-1.34;87.25
68508;BME280;55510;49.560;19.090;2023-03-15T21:14:29;96463.88;;;-1.36;87.42
68508;BME280;55510;49.560;19.090;2023-03-15T21:17:32;96468.00;;;-1.41;87.43
68508;BME280;55510;49.560;19.090;2023-03-15T21:20:35;96476.94;;;-1.44;87.65
68508;BME280;55510;49.560;19.090;2023-03-15T21:23:36;96464.22;;;-1.39;87.11
68508;BME280;55510;49.560;19.090;2023-03-15T21:26:37;96475.94;;;-1.35;86.73
68508;BME280;55510;49.560;19.090;2023-03-15T21:29:38;96475.31;;;-1.28;87.05
68508;BME280;55510;49.560;19.090;2023-03-15T21:32:40;96473.81;;;-1.23;87.39
68508;BME280;55510;49.560;19.090;2023-03-15T21:35:41;96486.19;;;-1.17;87.50
68508;BME280;55510;49.560;19.090;2023-03-15T21:38:42;96485.72;;;-1.12;87.29
68508;BME280;55510;49.560;19.090;2023-03-15T21:41:43;96490.59;;;-1.09;86.43
68508;BME280;55510;49.560;19.090;2023-03-15T21:44:44;96482.63;;;-1.07;86.39
68508;BME280;55510;49.560;19.090;2023-03-15T21:47:44;96490.91;;;-1.04;86.64
68508;BME280;55510;49.560;19.090;2023-03-15T21:50:48;96487.00;;;-1.08;85.29
68508;BME280;55510;49.560;19.090;2023-03-15T21:53:48;96495.66;;;-1.07;85.91
68508;BME280;55510;49.560;19.090;2023-03-15T21:56:49;96501.66;;;-0.98;85.74
68508;BME280;55510;49.560;19.090;2023-03-15T21:59:52;96496.94;;;-0.95;84.61
68508;BME280;55510;49.560;19.090;2023-03-15T22:02:53;96506.88;;;-0.90;85.16
68508;BME280;55510;49.560;19.090;2023-03-15T22:05:54;96510.31;;;-0.90;85.63
68508;BME280;55510;49.560;19.090;2023-03-15T22:08:54;96501.97;;;-0.85;85.55
68508;BME280;55510;49.560;19.090;2023-03-15T22:11:55;96506.03;;;-0.82;85.36
68508;BME280;55510;49.560;19.090;2023-03-15T22:14:56;96513.06;;;-0.83;85.10
68508;BME280;55510;49.560;19.090;2023-03-15T22:17:56;96518.31;;;-0.83;86.03
68508;BME280;55510;49.560;19.090;2023-03-15T22:20:57;96523.19;;;-0.80;85.63
68508;BME280;55510;49.560;19.090;2023-03-15T22:23:58;96535.91;;;-0.77;85.50
68508;BME280;55510;49.560;19.090;2023-03-15T22:26:59;96531.03;;;-0.80;85.96
68508;BME280;55510;49.560;19.090;2023-03-15T22:29:59;96525.31;;;-0.83;86.70
68508;BME280;55510;49.560;19.090;2023-03-15T22:33:00;96534.13;;;-0.84;86.98
68508;BME280;55510;49.560;19.090;2023-03-15T22:36:01;96527.13;;;-0.84;87.45
68508;BME280;55510;49.560;19.090;2023-03-15T22:39:03;96529.75;;;-0.84;87.30
68508;BME280;55510;49.560;19.090;2023-03-15T22:42:04;96528.91;;;-0.84;87.74
68508;BME280;55510;49.560;19.090;2023-03-15T22:45:05;96527.63;;;-0.89;87.66
68508;BME280;55510;49.560;19.090;2023-03-15T22:48:06;96537.56;;;-0.92;87.96
68508;BME280;55510;49.560;19.090;2023-03-15T22:51:08;96534.66;;;-0.97;88.23
68508;BME280;55510;49.560;19.090;2023-03-15T22:54:10;96542.16;;;-1.03;88.36
68508;BME280;55510;49.560;19.090;2023-03-15T22:57:11;96548.91;;;-1.08;88.40
68508;BME280;55510;49.560;19.090;2023-03-15T23:00:13;96555.09;;;-1.18;88.70
68508;BME280;55510;49.560;19.090;2023-03-15T23:03:16;96546.94;;;-1.23;88.61
68508;BME280;55510;49.560;19.090;2023-03-15T23:06:17;96554.13;;;-1.25;89.00
68508;BME280;55510;49.560;19.090;2023-03-15T23:09:18;96558.22;;;-1.22;89.97
68508;BME280;55510;49.560;19.090;2023-03-15T23:12:21;96553.63;;;-1.20;89.79
68508;BME280;55510;49.560;19.090;2023-03-15T23:15:21;96552.81;;;-1.21;90.44
68508;BME280;55510;49.560;19.090;2023-03-15T23:18:23;96560.97;;;-1.24;89.83
68508;BME280;55510;49.560;19.090;2023-03-15T23:21:23;96555.59;;;-1.30;89.66
68508;BME280;55510;49.560;19.090;2023-03-15T23:24:24;96568.31;;;-1.36;89.19
68508;BME280;55510;49.560;19.090;2023-03-15T23:27:27;96563.28;;;-1.46;89.64
68508;BME280;55510;49.560;19.090;2023-03-15T23:30:28;96565.72;;;-1.52;90.05
68508;BME280;55510;49.560;19.090;2023-03-15T23:33:32;96569.28;;;-1.62;90.13
68508;BME280;55510;49.560;19.090;2023-03-15T23:36:35;96575.16;;;-1.68;90.55
68508;BME280;55510;49.560;19.090;2023-03-15T23:39:36;96575.81;;;-1.74;90.55
68508;BME280;55510;49.560;19.090;2023-03-15T23:42:37;96578.72;;;-1.77;91.42
68508;BME280;55510;49.560;19.090;2023-03-15T23:45:37;96581.66;;;-1.80;91.52
68508;BME280;55510;49.560;19.090;2023-03-15T23:48:38;96577.25;;;-1.80;91.45
68508;BME280;55510;49.560;19.090;2023-03-15T23:51:39;96588.69;;;-1.81;91.91
68508;BME280;55510;49.560;19.090;2023-03-15T23:54:40;96596.31;;;-1.79;92.16
68508;BME280;55510;49.560;19.090;2023-03-15T23:57:41;96592.59;;;-1.77;92.89
